RPC1789 RPLU-RPLS
Flight info
| Callsign | RPC1789 |
|---|---|
| Flight time | 0h 32m |
| Altitude | 3500 |
| Route | 142232N1203551E |
| Aircraft | P212/L-SBDFGIRY/SB1 |
Departure
| Time | 2026-04-22 15:11 |
|---|---|
| Airport | Lubang Airport (RPLU) |
Arrival
| Time | 2026-04-22 15:44 |
|---|---|
| Airport | Danilo Atienza Air Base (RPLS) |
| Time | Latitude | Longitude | Altitude | Speed | Heading |
|---|---|---|---|---|---|
| 2026-04-22 15:06 | 13.85680 | 120.10902 | 65 ft | 0 kts | 13° |
| 2026-04-22 15:08 | 13.85704 | 120.10897 | 65 ft | 8 kts | 291° |
| 2026-04-22 15:09 | 13.85672 | 120.10808 | 64 ft | 18 kts | 244° |
| 2026-04-22 15:09 | 13.85607 | 120.10667 | 62 ft | 25 kts | 244° |
| 2026-04-22 15:09 | 13.85527 | 120.10487 | 61 ft | 29 kts | 246° |
| 2026-04-22 15:09 | 13.85437 | 120.10289 | 58 ft | 32 kts | 242° |
| 2026-04-22 15:10 | 13.85362 | 120.10138 | 57 ft | 12 kts | 299° |
| 2026-04-22 15:10 | 13.85392 | 120.10153 | 57 ft | 0 kts | 117° |
| 2026-04-22 15:10 | 13.85388 | 120.10180 | 58 ft | 0 kts | 64° |
| 2026-04-22 15:10 | 13.85397 | 120.10204 | 58 ft | 20 kts | 67° |
| 2026-04-22 15:11 | 13.85541 | 120.10529 | 84 ft | 66 kts | 75° |
| 2026-04-22 15:11 | 13.85748 | 120.11002 | 197 ft | 80 kts | 72° |
| 2026-04-22 15:11 | 13.85931 | 120.11533 | 399 ft | 77 kts | 78° |
| 2026-04-22 15:11 | 13.86095 | 120.12032 | 726 ft | 68 kts | 79° |
| 2026-04-22 15:12 | 13.86261 | 120.12528 | 921 ft | 82 kts | 70° |
| 2026-04-22 15:12 | 13.86549 | 120.13109 | 1095 ft | 89 kts | 63° |
| 2026-04-22 15:12 | 13.86936 | 120.13683 | 1111 ft | 107 kts | 58° |
| 2026-04-22 15:12 | 13.87414 | 120.14297 | 1205 ft | 110 kts | 58° |
| 2026-04-22 15:13 | 13.87809 | 120.14936 | 1406 ft | 103 kts | 64° |
| 2026-04-22 15:13 | 13.88172 | 120.15577 | 1518 ft | 105 kts | 68° |
| 2026-04-22 15:13 | 13.88516 | 120.16248 | 1648 ft | 106 kts | 60° |
| 2026-04-22 15:13 | 13.88949 | 120.16864 | 1764 ft | 107 kts | 58° |
| 2026-04-22 15:14 | 13.89438 | 120.17458 | 1877 ft | 110 kts | 53° |
| 2026-04-22 15:14 | 13.90081 | 120.17937 | 1961 ft | 114 kts | 42° |
| 2026-04-22 15:14 | 13.90705 | 120.18420 | 2112 ft | 111 kts | 45° |
| 2026-04-22 15:14 | 13.91273 | 120.18963 | 2206 ft | 111 kts | 49° |
| 2026-04-22 15:15 | 13.91839 | 120.19491 | 2350 ft | 109 kts | 48° |
| 2026-04-22 15:15 | 13.92407 | 120.20019 | 2429 ft | 111 kts | 48° |
| 2026-04-22 15:15 | 13.92968 | 120.20567 | 2556 ft | 109 kts | 50° |
| 2026-04-22 15:15 | 13.93506 | 120.21123 | 2674 ft | 108 kts | 52° |
| 2026-04-22 15:16 | 13.94016 | 120.21668 | 2800 ft | 107 kts | 54° |
| 2026-04-22 15:16 | 13.94446 | 120.22309 | 2867 ft | 107 kts | 65° |
| 2026-04-22 15:16 | 13.94740 | 120.23001 | 2970 ft | 105 kts | 70° |
| 2026-04-22 15:16 | 13.95019 | 120.23710 | 3053 ft | 108 kts | 65° |
| 2026-04-22 15:17 | 13.95472 | 120.24325 | 3172 ft | 108 kts | 52° |
| 2026-04-22 15:17 | 13.95998 | 120.24878 | 3261 ft | 109 kts | 52° |
| 2026-04-22 15:17 | 13.96562 | 120.25404 | 3348 ft | 110 kts | 48° |
| 2026-04-22 15:17 | 13.97115 | 120.25956 | 3455 ft | 108 kts | 50° |
| 2026-04-22 15:18 | 13.97663 | 120.26502 | 3508 ft | 111 kts | 53° |
| 2026-04-22 15:18 | 13.98183 | 120.27072 | 3598 ft | 109 kts | 53° |
| 2026-04-22 15:18 | 13.98676 | 120.27629 | 3581 ft | 104 kts | 54° |
| 2026-04-22 15:18 | 13.99260 | 120.28164 | 3489 ft | 115 kts | 47° |
| 2026-04-22 15:19 | 13.99839 | 120.28682 | 3650 ft | 108 kts | 49° |
| 2026-04-22 15:19 | 14.00381 | 120.29247 | 3662 ft | 113 kts | 52° |
| 2026-04-22 15:19 | 14.00916 | 120.29831 | 3436 ft | 106 kts | 53° |
| 2026-04-22 15:19 | 14.01449 | 120.30335 | 3286 ft | 104 kts | 47° |
| 2026-04-22 15:20 | 14.01818 | 120.30674 | 3351 ft | 104 kts | 50° |
| 2026-04-22 15:20 | 14.02473 | 120.31401 | 3454 ft | 107 kts | 53° |
| 2026-04-22 15:20 | 14.02956 | 120.31986 | 3551 ft | 107 kts | 57° |
| 2026-04-22 15:20 | 14.03424 | 120.32580 | 3622 ft | 110 kts | 57° |
| 2026-04-22 15:21 | 14.03912 | 120.33212 | 3657 ft | 113 kts | 53° |
| 2026-04-22 15:21 | 14.04468 | 120.33791 | 3703 ft | 115 kts | 50° |
| 2026-04-22 15:21 | 14.05045 | 120.34338 | 3786 ft | 112 kts | 50° |
| 2026-04-22 15:21 | 14.05592 | 120.34940 | 3799 ft | 115 kts | 54° |
| 2026-04-22 15:22 | 14.06107 | 120.35574 | 3748 ft | 122 kts | 54° |
| 2026-04-22 15:22 | 14.06685 | 120.36233 | 3656 ft | 127 kts | 52° |
| 2026-04-22 15:22 | 14.07302 | 120.36929 | 3552 ft | 127 kts | 52° |
| 2026-04-22 15:22 | 14.07903 | 120.37574 | 3569 ft | 123 kts | 51° |
| 2026-04-22 15:23 | 14.08474 | 120.38198 | 3620 ft | 119 kts | 52° |
| 2026-04-22 15:23 | 14.09064 | 120.38823 | 3589 ft | 121 kts | 50° |
| 2026-04-22 15:23 | 14.09644 | 120.39430 | 3646 ft | 118 kts | 50° |
| 2026-04-22 15:23 | 14.10258 | 120.39990 | 3691 ft | 118 kts | 44° |
| 2026-04-22 15:24 | 14.10978 | 120.40399 | 3803 ft | 117 kts | 33° |
| 2026-04-22 15:24 | 14.11708 | 120.40755 | 3895 ft | 115 kts | 33° |
| 2026-04-22 15:24 | 14.12449 | 120.41106 | 3977 ft | 115 kts | 32° |
| 2026-04-22 15:24 | 14.13206 | 120.41444 | 3896 ft | 129 kts | 30° |
| 2026-04-22 15:25 | 14.14081 | 120.41878 | 3598 ft | 142 kts | 32° |
| 2026-04-22 15:25 | 14.14949 | 120.42336 | 3517 ft | 136 kts | 33° |
| 2026-04-22 15:25 | 14.15772 | 120.42748 | 3554 ft | 128 kts | 35° |
| 2026-04-22 15:25 | 14.16578 | 120.43165 | 3535 ft | 127 kts | 32° |
| 2026-04-22 15:26 | 14.17365 | 120.43569 | 3577 ft | 124 kts | 33° |
| 2026-04-22 15:26 | 14.18115 | 120.43969 | 3652 ft | 119 kts | 35° |
| 2026-04-22 15:26 | 14.18847 | 120.44402 | 3568 ft | 129 kts | 35° |
| 2026-04-22 15:26 | 14.19652 | 120.44852 | 3441 ft | 135 kts | 34° |
| 2026-04-22 15:27 | 14.20463 | 120.45287 | 3493 ft | 126 kts | 34° |
| 2026-04-22 15:27 | 14.21217 | 120.45712 | 3555 ft | 122 kts | 33° |
| 2026-04-22 15:27 | 14.21978 | 120.46111 | 3635 ft | 118 kts | 34° |
| 2026-04-22 15:27 | 14.22678 | 120.46539 | 3651 ft | 120 kts | 40° |
| 2026-04-22 15:28 | 14.23424 | 120.47005 | 3512 ft | 125 kts | 36° |
| 2026-04-22 15:28 | 14.24155 | 120.47469 | 3511 ft | 124 kts | 38° |
| 2026-04-22 15:28 | 14.24907 | 120.47922 | 3537 ft | 124 kts | 36° |
| 2026-04-22 15:28 | 14.25647 | 120.48341 | 3623 ft | 120 kts | 35° |
| 2026-04-22 15:29 | 14.26357 | 120.48809 | 3683 ft | 118 kts | 40° |
| 2026-04-22 15:29 | 14.27007 | 120.49329 | 3724 ft | 117 kts | 51° |
| 2026-04-22 15:29 | 14.27604 | 120.49853 | 3891 ft | 112 kts | 37° |
| 2026-04-22 15:30 | 14.28708 | 120.50540 | 4100 ft | 108 kts | 41° |
| 2026-04-22 15:30 | 14.29617 | 120.51035 | 4199 ft | 114 kts | 32° |
| 2026-04-22 15:30 | 14.30273 | 120.51452 | 4279 ft | 115 kts | 38° |
| 2026-04-22 15:30 | 14.30903 | 120.51818 | 3964 ft | 95 kts | 37° |
| 2026-04-22 15:31 | 14.31475 | 120.52116 | 3559 ft | 90 kts | 37° |
| 2026-04-22 15:31 | 14.32075 | 120.52460 | 3477 ft | 105 kts | 37° |
| 2026-04-22 15:31 | 14.32721 | 120.52866 | 3520 ft | 113 kts | 40° |
| 2026-04-22 15:31 | 14.33421 | 120.53283 | 3522 ft | 121 kts | 36° |
| 2026-04-22 15:32 | 14.34152 | 120.53774 | 3486 ft | 123 kts | 40° |
| 2026-04-22 15:32 | 14.34824 | 120.54274 | 3562 ft | 120 kts | 42° |
| 2026-04-22 15:32 | 14.35478 | 120.54801 | 3624 ft | 118 kts | 45° |
| 2026-04-22 15:32 | 14.36129 | 120.55379 | 3579 ft | 123 kts | 45° |
| 2026-04-22 15:33 | 14.36771 | 120.55943 | 3526 ft | 129 kts | 45° |
| 2026-04-22 15:33 | 14.37452 | 120.56491 | 3643 ft | 120 kts | 42° |
| 2026-04-22 15:33 | 14.38110 | 120.57030 | 3622 ft | 123 kts | 44° |
| 2026-04-22 15:33 | 14.38774 | 120.57638 | 3513 ft | 129 kts | 46° |
| 2026-04-22 15:34 | 14.39284 | 120.58367 | 3530 ft | 122 kts | 64° |
| 2026-04-22 15:34 | 14.39616 | 120.59180 | 3497 ft | 122 kts | 71° |
| 2026-04-22 15:34 | 14.39915 | 120.59905 | 3500 ft | 122 kts | 66° |
| 2026-04-22 15:34 | 14.40312 | 120.60709 | 3450 ft | 123 kts | 65° |
| 2026-04-22 15:35 | 14.40593 | 120.61212 | 3449 ft | 123 kts | 63° |
| 2026-04-22 15:35 | 14.41191 | 120.62196 | 3506 ft | 118 kts | 58° |
| 2026-04-22 15:35 | 14.41703 | 120.62897 | 3476 ft | 121 kts | 59° |
| 2026-04-22 15:35 | 14.42135 | 120.63654 | 3432 ft | 125 kts | 63° |
| 2026-04-22 15:36 | 14.42561 | 120.64463 | 3316 ft | 129 kts | 65° |
| 2026-04-22 15:36 | 14.42824 | 120.65326 | 3277 ft | 127 kts | 79° |
| 2026-04-22 15:36 | 14.42986 | 120.66230 | 3126 ft | 132 kts | 81° |
| 2026-04-22 15:36 | 14.43149 | 120.67168 | 3006 ft | 132 kts | 83° |
| 2026-04-22 15:37 | 14.43296 | 120.68102 | 2908 ft | 131 kts | 82° |
| 2026-04-22 15:37 | 14.43383 | 120.69031 | 2817 ft | 124 kts | 87° |
| 2026-04-22 15:37 | 14.43436 | 120.69886 | 2664 ft | 118 kts | 86° |
| 2026-04-22 15:37 | 14.43531 | 120.70750 | 2551 ft | 123 kts | 84° |
| 2026-04-22 15:38 | 14.43667 | 120.71619 | 2535 ft | 124 kts | 79° |
| 2026-04-22 15:38 | 14.43962 | 120.73396 | 2424 ft | 127 kts | 83° |
| 2026-04-22 15:38 | 14.44099 | 120.74308 | 2345 ft | 128 kts | 84° |
| 2026-04-22 15:39 | 14.44244 | 120.75245 | 2112 ft | 137 kts | 80° |
| 2026-04-22 15:39 | 14.44445 | 120.76229 | 1861 ft | 139 kts | 82° |
| 2026-04-22 15:39 | 14.44623 | 120.77154 | 1702 ft | 123 kts | 81° |
| 2026-04-22 15:39 | 14.44770 | 120.78005 | 1517 ft | 116 kts | 83° |
| 2026-04-22 15:40 | 14.44922 | 120.78844 | 1427 ft | 120 kts | 78° |
| 2026-04-22 15:40 | 14.45161 | 120.79667 | 1409 ft | 124 kts | 68° |
| 2026-04-22 15:40 | 14.45592 | 120.80511 | 1210 ft | 137 kts | 68° |
| 2026-04-22 15:40 | 14.45960 | 120.81421 | 992 ft | 142 kts | 73° |
| 2026-04-22 15:41 | 14.46272 | 120.82328 | 800 ft | 127 kts | 68° |
| 2026-04-22 15:41 | 14.46652 | 120.83142 | 704 ft | 118 kts | 71° |
| 2026-04-22 15:41 | 14.46981 | 120.83902 | 665 ft | 114 kts | 68° |
| 2026-04-22 15:41 | 14.47285 | 120.84679 | 579 ft | 117 kts | 76° |
| 2026-04-22 15:42 | 14.47562 | 120.85432 | 456 ft | 104 kts | 67° |
| 2026-04-22 15:42 | 14.47801 | 120.86082 | 346 ft | 88 kts | 80° |
| 2026-04-22 15:42 | 14.48050 | 120.86603 | 379 ft | 80 kts | 73° |
| 2026-04-22 15:42 | 14.48252 | 120.87120 | 354 ft | 75 kts | 78° |
| 2026-04-22 15:43 | 14.48426 | 120.87625 | 336 ft | 76 kts | 75° |
| 2026-04-22 15:43 | 14.48661 | 120.88148 | 268 ft | 82 kts | 78° |
| 2026-04-22 15:43 | 14.48852 | 120.88693 | 175 ft | 78 kts | 75° |
| 2026-04-22 15:43 | 14.49044 | 120.89178 | 85 ft | 74 kts | 77° |
| 2026-04-22 15:44 | 14.49238 | 120.89666 | 24 ft | 68 kts | 77° |
| 2026-04-22 15:44 | 14.49354 | 120.89965 | 15 ft | 28 kts | 69° |
| 2026-04-22 15:44 | 14.49419 | 120.90147 | 15 ft | 24 kts | 76° |
| 2026-04-22 15:44 | 14.49402 | 120.90229 | 15 ft | 10 kts | 266° |
| 2026-04-22 15:45 | 14.49362 | 120.90127 | 15 ft | 20 kts | 249° |
| 2026-04-22 15:45 | 14.49303 | 120.89980 | 15 ft | 24 kts | 247° |
| 2026-04-22 15:45 | 14.49234 | 120.89809 | 15 ft | 25 kts | 248° |
| 2026-04-22 15:45 | 14.49165 | 120.89638 | 15 ft | 24 kts | 249° |
| 2026-04-22 15:46 | 14.49115 | 120.89513 | 15 ft | 11 kts | 245° |
| 2026-04-22 15:46 | 14.49061 | 120.89495 | 15 ft | 6 kts | 238° |
| 2026-04-22 15:46 | 14.49044 | 120.89455 | 15 ft | 1 kts | 246° |
| 2026-04-22 15:46 | 14.49043 | 120.89453 | 15 ft | 0 kts | 246° |
| 2026-04-22 15:48 | 14.49047 | 120.89462 | 17 ft | 0 kts | 248° |